sensor_id;sensor_type;location;lat;lon;timestamp;temperature;humidity
67182;DHT22;54114;53.524;49.396;2023-05-14T00:00:49;17.00;50.80
67182;DHT22;54114;53.524;49.396;2023-05-14T00:03:16;17.00;51.00
67182;DHT22;54114;53.524;49.396;2023-05-14T00:05:42;17.00;51.40
67182;DHT22;54114;53.524;49.396;2023-05-14T00:08:09;16.80;52.00
67182;DHT22;54114;53.524;49.396;2023-05-14T00:10:35;16.70;52.40
67182;DHT22;54114;53.524;49.396;2023-05-14T00:13:02;16.70;52.70
67182;DHT22;54114;53.524;49.396;2023-05-14T00:15:29;16.70;53.00
67182;DHT22;54114;53.524;49.396;2023-05-14T00:17:55;16.60;53.40
67182;DHT22;54114;53.524;49.396;2023-05-14T00:20:22;16.60;53.70
67182;DHT22;54114;53.524;49.396;2023-05-14T00:22:48;16.60;53.90
67182;DHT22;54114;53.524;49.396;2023-05-14T00:25:15;16.70;54.00
67182;DHT22;54114;53.524;49.396;2023-05-14T00:27:41;16.80;54.00
67182;DHT22;54114;53.524;49.396;2023-05-14T00:30:08;16.90;54.00
67182;DHT22;54114;53.524;49.396;2023-05-14T00:32:35;17.00;54.00
67182;DHT22;54114;53.524;49.396;2023-05-14T00:35:02;17.00;54.00
67182;DHT22;54114;53.524;49.396;2023-05-14T00:37:29;17.00;54.10
67182;DHT22;54114;53.524;49.396;2023-05-14T00:39:56;17.00;54.00
67182;DHT22;54114;53.524;49.396;2023-05-14T00:42:23;17.00;53.90
67182;DHT22;54114;53.524;49.396;2023-05-14T00:44:51;17.10;54.00
67182;DHT22;54114;53.524;49.396;2023-05-14T00:47:18;17.10;53.90
67182;DHT22;54114;53.524;49.396;2023-05-14T00:49:44;17.00;53.90
67182;DHT22;54114;53.524;49.396;2023-05-14T00:52:12;17.00;53.90
67182;DHT22;54114;53.524;49.396;2023-05-14T00:54:39;16.90;54.00
67182;DHT22;54114;53.524;49.396;2023-05-14T00:57:06;16.80;54.50
67182;DHT22;54114;53.524;49.396;2023-05-14T00:59:32;16.60;54.80
67182;DHT22;54114;53.524;49.396;2023-05-14T01:01:59;16.50;55.30
67182;DHT22;54114;53.524;49.396;2023-05-14T01:04:26;16.40;55.50
67182;DHT22;54114;53.524;49.396;2023-05-14T01:07:11;16.30;55.50
67182;DHT22;54114;53.524;49.396;2023-05-14T01:15:55;16.00;56.20
67182;DHT22;54114;53.524;49.396;2023-05-14T01:18:23;16.00;56.30
67182;DHT22;54114;53.524;49.396;2023-05-14T01:20:50;16.10;56.30
67182;DHT22;54114;53.524;49.396;2023-05-14T01:23:17;16.00;56.70
67182;DHT22;54114;53.524;49.396;2023-05-14T01:25:44;16.10;56.10
67182;DHT22;54114;53.524;49.396;2023-05-14T01:28:12;16.10;56.00
67182;DHT22;54114;53.524;49.396;2023-05-14T01:31:07;16.10;56.00
67182;DHT22;54114;53.524;49.396;2023-05-14T01:33:41;16.10;56.00
67182;DHT22;54114;53.524;49.396;2023-05-14T01:36:09;16.10;55.90
67182;DHT22;54114;53.524;49.396;2023-05-14T01:38:36;16.00;56.00
67182;DHT22;54114;53.524;49.396;2023-05-14T01:41:04;15.90;56.10
67182;DHT22;54114;53.524;49.396;2023-05-14T01:43:32;15.80;56.50
67182;DHT22;54114;53.524;49.396;2023-05-14T01:46:02;15.80;56.80
67182;DHT22;54114;53.524;49.396;2023-05-14T01:48:29;15.80;56.90
67182;DHT22;54114;53.524;49.396;2023-05-14T01:50:56;15.70;56.90
67182;DHT22;54114;53.524;49.396;2023-05-14T01:53:22;15.70;57.10
67182;DHT22;54114;53.524;49.396;2023-05-14T01:55:50;15.70;57.30
67182;DHT22;54114;53.524;49.396;2023-05-14T01:58:16;15.70;57.50
67182;DHT22;54114;53.524;49.396;2023-05-14T02:00:43;15.80;57.60
67182;DHT22;54114;53.524;49.396;2023-05-14T02:03:09;15.90;57.50
67182;DHT22;54114;53.524;49.396;2023-05-14T02:05:36;16.00;57.40
67182;DHT22;54114;53.524;49.396;2023-05-14T02:08:03;16.20;57.40
67182;DHT22;54114;53.524;49.396;2023-05-14T02:10:29;16.40;57.30
67182;DHT22;54114;53.524;49.396;2023-05-14T02:12:56;16.50;57.00
67182;DHT22;54114;53.524;49.396;2023-05-14T02:15:23;16.70;56.90
67182;DHT22;54114;53.524;49.396;2023-05-14T02:17:49;16.90;56.70
67182;DHT22;54114;53.524;49.396;2023-05-14T02:20:16;17.20;56.00
67182;DHT22;54114;53.524;49.396;2023-05-14T02:22:42;17.50;55.20
67182;DHT22;54114;53.524;49.396;2023-05-14T02:25:11;17.80;54.20
67182;DHT22;54114;53.524;49.396;2023-05-14T02:27:37;18.10;53.30
67182;DHT22;54114;53.524;49.396;2023-05-14T02:30:04;18.30;52.70
67182;DHT22;54114;53.524;49.396;2023-05-14T02:32:31;18.50;52.20
67182;DHT22;54114;53.524;49.396;2023-05-14T02:34:58;18.60;51.60
67182;DHT22;54114;53.524;49.396;2023-05-14T02:37:25;18.80;51.00
67182;DHT22;54114;53.524;49.396;2023-05-14T02:39:51;18.90;50.40
67182;DHT22;54114;53.524;49.396;2023-05-14T02:42:18;19.00;50.20
67182;DHT22;54114;53.524;49.396;2023-05-14T02:44:45;19.10;49.80
67182;DHT22;54114;53.524;49.396;2023-05-14T02:47:11;19.30;49.50
67182;DHT22;54114;53.524;49.396;2023-05-14T02:49:38;19.50;49.10
67182;DHT22;54114;53.524;49.396;2023-05-14T02:52:05;19.60;48.80
67182;DHT22;54114;53.524;49.396;2023-05-14T02:54:32;19.60;49.20
67182;DHT22;54114;53.524;49.396;2023-05-14T02:56:58;19.80;48.50
67182;DHT22;54114;53.524;49.396;2023-05-14T02:59:26;19.80;48.40
67182;DHT22;54114;53.524;49.396;2023-05-14T03:01:53;19.90;48.20
67182;DHT22;54114;53.524;49.396;2023-05-14T03:04:19;20.10;48.20
67182;DHT22;54114;53.524;49.396;2023-05-14T03:06:46;20.20;48.10
67182;DHT22;54114;53.524;49.396;2023-05-14T03:09:13;20.30;47.90
67182;DHT22;54114;53.524;49.396;2023-05-14T03:11:39;20.30;47.90
67182;DHT22;54114;53.524;49.396;2023-05-14T03:14:06;20.30;48.20
67182;DHT22;54114;53.524;49.396;2023-05-14T03:16:32;20.30;48.50
67182;DHT22;54114;53.524;49.396;2023-05-14T03:18:59;20.30;48.90
67182;DHT22;54114;53.524;49.396;2023-05-14T03:21:26;20.20;49.30
67182;DHT22;54114;53.524;49.396;2023-05-14T03:23:52;20.10;49.70
67182;DHT22;54114;53.524;49.396;2023-05-14T03:26:19;20.10;50.00
67182;DHT22;54114;53.524;49.396;2023-05-14T03:28:46;20.10;50.00
67182;DHT22;54114;53.524;49.396;2023-05-14T03:31:13;20.10;49.90
67182;DHT22;54114;53.524;49.396;2023-05-14T03:33:39;20.20;49.80
67182;DHT22;54114;53.524;49.396;2023-05-14T03:36:06;20.30;49.60
67182;DHT22;54114;53.524;49.396;2023-05-14T03:38:33;20.40;49.40
67182;DHT22;54114;53.524;49.396;2023-05-14T03:40:59;20.50;49.30
67182;DHT22;54114;53.524;49.396;2023-05-14T03:43:26;20.60;49.30
67182;DHT22;54114;53.524;49.396;2023-05-14T03:45:53;20.70;49.10
67182;DHT22;54114;53.524;49.396;2023-05-14T03:48:19;20.80;48.70
67182;DHT22;54114;53.524;49.396;2023-05-14T03:50:46;20.90;48.40
67182;DHT22;54114;53.524;49.396;2023-05-14T03:53:13;21.00;48.00
67182;DHT22;54114;53.524;49.396;2023-05-14T03:55:39;21.20;47.40
67182;DHT22;54114;53.524;49.396;2023-05-14T03:58:06;21.30;46.90
67182;DHT22;54114;53.524;49.396;2023-05-14T04:00:41;21.50;46.50
67182;DHT22;54114;53.524;49.396;2023-05-14T04:03:08;21.60;46.10
67182;DHT22;54114;53.524;49.396;2023-05-14T04:05:35;21.70;45.70
67182;DHT22;54114;53.524;49.396;2023-05-14T04:08:02;22.00;45.50
67182;DHT22;54114;53.524;49.396;2023-05-14T04:10:29;22.10;45.20
67182;DHT22;54114;53.524;49.396;2023-05-14T04:12:57;22.30;44.70
67182;DHT22;54114;53.524;49.396;2023-05-14T04:15:23;22.40;44.20
67182;DHT22;54114;53.524;49.396;2023-05-14T04:17:50;22.60;43.90
67182;DHT22;54114;53.524;49.396;2023-05-14T04:20:17;22.80;43.50
67182;DHT22;54114;53.524;49.396;2023-05-14T04:22:43;22.90;43.20
67182;DHT22;54114;53.524;49.396;2023-05-14T04:25:10;23.20;42.70
67182;DHT22;54114;53.524;49.396;2023-05-14T04:27:37;23.50;42.10
67182;DHT22;54114;53.524;49.396;2023-05-14T04:30:04;23.80;41.60
67182;DHT22;54114;53.524;49.396;2023-05-14T04:32:31;24.30;40.90
67182;DHT22;54114;53.524;49.396;2023-05-14T04:34:58;24.60;40.10
67182;DHT22;54114;53.524;49.396;2023-05-14T04:37:24;24.90;39.60
67182;DHT22;54114;53.524;49.396;2023-05-14T04:39:51;25.30;39.10
67182;DHT22;54114;53.524;49.396;2023-05-14T04:42:18;25.60;38.80
67182;DHT22;54114;53.524;49.396;2023-05-14T04:44:44;25.80;38.50
67182;DHT22;54114;53.524;49.396;2023-05-14T04:47:11;26.10;38.00
67182;DHT22;54114;53.524;49.396;2023-05-14T04:49:37;26.40;37.30
67182;DHT22;54114;53.524;49.396;2023-05-14T04:52:05;26.50;37.10
67182;DHT22;54114;53.524;49.396;2023-05-14T04:54:31;26.50;36.90
67182;DHT22;54114;53.524;49.396;2023-05-14T04:56:58;26.80;36.60
67182;DHT22;54114;53.524;49.396;2023-05-14T04:59:30;27.00;36.30
67182;DHT22;54114;53.524;49.396;2023-05-14T05:01:57;27.30;35.50
67182;DHT22;54114;53.524;49.396;2023-05-14T05:04:24;27.50;35.40
67182;DHT22;54114;53.524;49.396;2023-05-14T05:06:51;28.00;35.00
67182;DHT22;54114;53.524;49.396;2023-05-14T05:09:18;28.40;33.90
67182;DHT22;54114;53.524;49.396;2023-05-14T05:11:44;28.80;33.40
67182;DHT22;54114;53.524;49.396;2023-05-14T05:14:11;29.20;32.90
67182;DHT22;54114;53.524;49.396;2023-05-14T05:16:37;29.50;32.40
67182;DHT22;54114;53.524;49.396;2023-05-14T05:19:04;29.70;32.10
67182;DHT22;54114;53.524;49.396;2023-05-14T05:21:31;29.70;31.70
67182;DHT22;54114;53.524;49.396;2023-05-14T05:23:58;29.80;31.50
67182;DHT22;54114;53.524;49.396;2023-05-14T05:26:25;29.80;31.40
67182;DHT22;54114;53.524;49.396;2023-05-14T05:28:53;29.80;31.40
67182;DHT22;54114;53.524;49.396;2023-05-14T05:31:19;29.90;31.30
67182;DHT22;54114;53.524;49.396;2023-05-14T05:33:47;30.00;31.10
67182;DHT22;54114;53.524;49.396;2023-05-14T05:36:13;30.20;30.70
67182;DHT22;54114;53.524;49.396;2023-05-14T05:38:40;30.20;30.50
67182;DHT22;54114;53.524;49.396;2023-05-14T05:41:07;30.00;30.40
67182;DHT22;54114;53.524;49.396;2023-05-14T05:43:33;29.80;30.60
67182;DHT22;54114;53.524;49.396;2023-05-14T05:46:00;29.70;30.70
67182;DHT22;54114;53.524;49.396;2023-05-14T05:48:27;29.60;30.80
67182;DHT22;54114;53.524;49.396;2023-05-14T05:50:54;29.50;30.80
67182;DHT22;54114;53.524;49.396;2023-05-14T05:53:20;29.40;30.90
67182;DHT22;54114;53.524;49.396;2023-05-14T05:55:47;29.30;30.90
67182;DHT22;54114;53.524;49.396;2023-05-14T05:58:17;29.30;30.80
67182;DHT22;54114;53.524;49.396;2023-05-14T06:00:45;29.30;30.90
67182;DHT22;54114;53.524;49.396;2023-05-14T06:03:13;29.10;30.70
67182;DHT22;54114;53.524;49.396;2023-05-14T06:05:39;29.10;30.70
67182;DHT22;54114;53.524;49.396;2023-05-14T06:08:06;29.10;30.70
67182;DHT22;54114;53.524;49.396;2023-05-14T06:10:33;28.90;30.90
67182;DHT22;54114;53.524;49.396;2023-05-14T06:13:01;28.80;31.40
67182;DHT22;54114;53.524;49.396;2023-05-14T06:15:27;28.70;32.10
67182;DHT22;54114;53.524;49.396;2023-05-14T06:17:54;28.60;32.40
67182;DHT22;54114;53.524;49.396;2023-05-14T06:20:21;28.60;32.70
67182;DHT22;54114;53.524;49.396;2023-05-14T06:22:47;28.50;32.70
67182;DHT22;54114;53.524;49.396;2023-05-14T06:25:14;28.40;33.80
67182;DHT22;54114;53.524;49.396;2023-05-14T06:27:41;27.90;35.10
67182;DHT22;54114;53.524;49.396;2023-05-14T06:30:08;27.30;36.10
67182;DHT22;54114;53.524;49.396;2023-05-14T06:32:36;26.50;37.10
67182;DHT22;54114;53.524;49.396;2023-05-14T06:35:03;26.00;37.90
67182;DHT22;54114;53.524;49.396;2023-05-14T06:37:30;25.50;38.40
67182;DHT22;54114;53.524;49.396;2023-05-14T06:39:56;25.00;39.00
67182;DHT22;54114;53.524;49.396;2023-05-14T06:42:23;24.50;39.80
67182;DHT22;54114;53.524;49.396;2023-05-14T06:44:51;24.20;40.70
67182;DHT22;54114;53.524;49.396;2023-05-14T06:47:17;23.80;41.40
67182;DHT22;54114;53.524;49.396;2023-05-14T06:49:44;23.40;42.10
67182;DHT22;54114;53.524;49.396;2023-05-14T06:52:11;23.10;42.70
67182;DHT22;54114;53.524;49.396;2023-05-14T06:54:37;22.80;43.40
67182;DHT22;54114;53.524;49.396;2023-05-14T06:57:04;22.50;44.30
67182;DHT22;54114;53.524;49.396;2023-05-14T06:59:31;22.20;45.30
67182;DHT22;54114;53.524;49.396;2023-05-14T07:01:58;22.10;46.90
67182;DHT22;54114;53.524;49.396;2023-05-14T07:04:25;22.00;48.20
67182;DHT22;54114;53.524;49.396;2023-05-14T07:06:51;22.10;49.60
67182;DHT22;54114;53.524;49.396;2023-05-14T07:09:18;22.40;49.80
67182;DHT22;54114;53.524;49.396;2023-05-14T07:11:44;22.60;49.90
67182;DHT22;54114;53.524;49.396;2023-05-14T07:14:11;22.70;50.00
67182;DHT22;54114;53.524;49.396;2023-05-14T07:16:38;22.50;50.90
67182;DHT22;54114;53.524;49.396;2023-05-14T07:19:05;22.40;50.70
67182;DHT22;54114;53.524;49.396;2023-05-14T07:21:31;22.20;51.30
67182;DHT22;54114;53.524;49.396;2023-05-14T07:23:58;22.00;51.60
67182;DHT22;54114;53.524;49.396;2023-05-14T07:26:25;21.90;51.60
67182;DHT22;54114;53.524;49.396;2023-05-14T07:28:51;21.80;52.00
67182;DHT22;54114;53.524;49.396;2023-05-14T07:31:18;21.70;52.40
67182;DHT22;54114;53.524;49.396;2023-05-14T07:33:45;21.60;52.60
67182;DHT22;54114;53.524;49.396;2023-05-14T07:36:11;21.70;53.10
67182;DHT22;54114;53.524;49.396;2023-05-14T07:38:38;21.80;53.10
67182;DHT22;54114;53.524;49.396;2023-05-14T07:41:04;21.90;52.80
67182;DHT22;54114;53.524;49.396;2023-05-14T07:43:31;22.00;52.80
67182;DHT22;54114;53.524;49.396;2023-05-14T07:45:58;22.20;52.70
67182;DHT22;54114;53.524;49.396;2023-05-14T07:48:24;22.50;52.10
67182;DHT22;54114;53.524;49.396;2023-05-14T07:50:51;23.00;51.30
67182;DHT22;54114;53.524;49.396;2023-05-14T07:53:18;23.40;50.10
67182;DHT22;54114;53.524;49.396;2023-05-14T07:55:45;23.80;49.40
67182;DHT22;54114;53.524;49.396;2023-05-14T07:58:13;24.10;48.60
67182;DHT22;54114;53.524;49.396;2023-05-14T08:00:41;24.30;48.30
67182;DHT22;54114;53.524;49.396;2023-05-14T08:03:07;24.40;47.70
67182;DHT22;54114;53.524;49.396;2023-05-14T08:05:34;24.30;47.40
67182;DHT22;54114;53.524;49.396;2023-05-14T08:08:01;24.30;47.30
67182;DHT22;54114;53.524;49.396;2023-05-14T08:10:27;24.30;47.10
67182;DHT22;54114;53.524;49.396;2023-05-14T08:12:54;24.30;46.70
67182;DHT22;54114;53.524;49.396;2023-05-14T08:15:21;24.70;46.00
67182;DHT22;54114;53.524;49.396;2023-05-14T08:17:48;25.40;45.00
67182;DHT22;54114;53.524;49.396;2023-05-14T08:20:14;25.90;43.90
67182;DHT22;54114;53.524;49.396;2023-05-14T08:22:43;26.50;43.20
67182;DHT22;54114;53.524;49.396;2023-05-14T08:25:10;26.60;42.60
67182;DHT22;54114;53.524;49.396;2023-05-14T08:27:37;26.70;42.50
67182;DHT22;54114;53.524;49.396;2023-05-14T08:30:04;27.10;42.20
67182;DHT22;54114;53.524;49.396;2023-05-14T08:32:31;27.70;41.70
67182;DHT22;54114;53.524;49.396;2023-05-14T08:34:58;28.40;40.80
67182;DHT22;54114;53.524;49.396;2023-05-14T08:37:24;29.00;39.60
67182;DHT22;54114;53.524;49.396;2023-05-14T08:39:51;29.60;38.50
67182;DHT22;54114;53.524;49.396;2023-05-14T08:42:20;30.10;36.90
67182;DHT22;54114;53.524;49.396;2023-05-14T08:44:59;30.50;35.70
67182;DHT22;54114;53.524;49.396;2023-05-14T08:47:28;31.00;35.10
67182;DHT22;54114;53.524;49.396;2023-05-14T08:50:03;31.70;34.60
67182;DHT22;54114;53.524;49.396;2023-05-14T08:52:32;32.20;33.90
67182;DHT22;54114;53.524;49.396;2023-05-14T08:55:03;32.50;32.80
67182;DHT22;54114;53.524;49.396;2023-05-14T08:57:31;32.80;32.10
67182;DHT22;54114;53.524;49.396;2023-05-14T08:59:59;33.00;31.20
67182;DHT22;54114;53.524;49.396;2023-05-14T09:02:34;33.20;30.70
67182;DHT22;54114;53.524;49.396;2023-05-14T09:05:01;33.30;30.50
67182;DHT22;54114;53.524;49.396;2023-05-14T09:07:29;33.30;30.10
67182;DHT22;54114;53.524;49.396;2023-05-14T09:09:55;33.00;29.90
67182;DHT22;54114;53.524;49.396;2023-05-14T09:12:22;32.40;29.80
67182;DHT22;54114;53.524;49.396;2023-05-14T09:14:49;32.10;29.30
67182;DHT22;54114;53.524;49.396;2023-05-14T09:17:17;32.10;29.50
67182;DHT22;54114;53.524;49.396;2023-05-14T09:19:45;32.50;29.40
67182;DHT22;54114;53.524;49.396;2023-05-14T09:22:18;32.70;29.00
67182;DHT22;54114;53.524;49.396;2023-05-14T09:24:45;32.70;28.80
67182;DHT22;54114;53.524;49.396;2023-05-14T09:27:18;32.30;28.70
67182;DHT22;54114;53.524;49.396;2023-05-14T09:29:46;32.10;28.90
67182;DHT22;54114;53.524;49.396;2023-05-14T09:32:13;31.80;29.10
67182;DHT22;54114;53.524;49.396;2023-05-14T09:34:39;31.40;29.20
67182;DHT22;54114;53.524;49.396;2023-05-14T09:37:08;30.80;30.00
67182;DHT22;54114;53.524;49.396;2023-05-14T09:39:36;30.10;31.50
67182;DHT22;54114;53.524;49.396;2023-05-14T09:42:03;29.10;33.00
67182;DHT22;54114;53.524;49.396;2023-05-14T09:44:30;28.40;34.30
67182;DHT22;54114;53.524;49.396;2023-05-14T09:46:57;27.80;35.00
67182;DHT22;54114;53.524;49.396;2023-05-14T09:49:24;27.10;35.70
67182;DHT22;54114;53.524;49.396;2023-05-14T09:51:51;26.30;36.40
67182;DHT22;54114;53.524;49.396;2023-05-14T09:54:17;25.20;38.10
67182;DHT22;54114;53.524;49.396;2023-05-14T09:56:44;24.10;39.90
67182;DHT22;54114;53.524;49.396;2023-05-14T09:59:11;23.00;42.30
67182;DHT22;54114;53.524;49.396;2023-05-14T10:01:38;22.10;44.40
67182;DHT22;54114;53.524;49.396;2023-05-14T10:04:08;21.50;45.80
67182;DHT22;54114;53.524;49.396;2023-05-14T10:06:36;20.90;46.70
67182;DHT22;54114;53.524;49.396;2023-05-14T10:09:06;20.10;49.40
67182;DHT22;54114;53.524;49.396;2023-05-14T10:11:39;19.20;51.10
67182;DHT22;54114;53.524;49.396;2023-05-14T10:14:22;18.30;53.10
67182;DHT22;54114;53.524;49.396;2023-05-14T10:16:52;17.60;55.00
67182;DHT22;54114;53.524;49.396;2023-05-14T10:19:21;17.10;56.40
67182;DHT22;54114;53.524;49.396;2023-05-14T10:21:56;16.60;57.50
67182;DHT22;54114;53.524;49.396;2023-05-14T10:24:29;16.30;59.10
67182;DHT22;54114;53.524;49.396;2023-05-14T10:26:56;16.20;60.20
67182;DHT22;54114;53.524;49.396;2023-05-14T10:29:34;16.20;61.20
67182;DHT22;54114;53.524;49.396;2023-05-14T10:32:07;16.10;62.50
67182;DHT22;54114;53.524;49.396;2023-05-14T10:34:40;16.10;63.00
67182;DHT22;54114;53.524;49.396;2023-05-14T10:37:15;16.00;62.90
67182;DHT22;54114;53.524;49.396;2023-05-14T10:39:50;15.80;63.70
67182;DHT22;54114;53.524;49.396;2023-05-14T10:42:32;15.70;64.80
67182;DHT22;54114;53.524;49.396;2023-05-14T10:45:15;15.80;66.10
67182;DHT22;54114;53.524;49.396;2023-05-14T10:47:43;15.90;68.00
67182;DHT22;54114;53.524;49.396;2023-05-14T10:50:13;16.10;69.10
67182;DHT22;54114;53.524;49.396;2023-05-14T10:52:41;16.50;71.00
67182;DHT22;54114;53.524;49.396;2023-05-14T10:55:12;17.10;73.00
67182;DHT22;54114;53.524;49.396;2023-05-14T10:57:43;17.70;74.80
67182;DHT22;54114;53.524;49.396;2023-05-14T11:00:12;18.20;75.40
67182;DHT22;54114;53.524;49.396;2023-05-14T11:02:43;18.80;76.10
67182;DHT22;54114;53.524;49.396;2023-05-14T11:05:11;19.30;77.30
67182;DHT22;54114;53.524;49.396;2023-05-14T11:07:49;19.90;77.80
67182;DHT22;54114;53.524;49.396;2023-05-14T11:10:17;20.50;79.50
67182;DHT22;54114;53.524;49.396;2023-05-14T11:12:47;21.20;79.90
67182;DHT22;54114;53.524;49.396;2023-05-14T11:15:19;22.00;79.60
67182;DHT22;54114;53.524;49.396;2023-05-14T11:17:48;22.70;79.50
67182;DHT22;54114;53.524;49.396;2023-05-14T11:20:16;23.30;79.70
67182;DHT22;54114;53.524;49.396;2023-05-14T11:22:45;23.90;79.70
67182;DHT22;54114;53.524;49.396;2023-05-14T11:25:13;24.50;79.70
67182;DHT22;54114;53.524;49.396;2023-05-14T11:27:41;24.90;77.10
67182;DHT22;54114;53.524;49.396;2023-05-14T11:32:42;25.70;76.70
67182;DHT22;54114;53.524;49.396;2023-05-14T11:35:09;26.10;74.90
67182;DHT22;54114;53.524;49.396;2023-05-14T11:37:36;26.50;73.90
67182;DHT22;54114;53.524;49.396;2023-05-14T11:40:07;27.00;73.40
67182;DHT22;54114;53.524;49.396;2023-05-14T11:42:39;27.40;72.80
67182;DHT22;54114;53.524;49.396;2023-05-14T11:45:09;27.90;71.10
67182;DHT22;54114;53.524;49.396;2023-05-14T11:47:37;28.20;69.10
67182;DHT22;54114;53.524;49.396;2023-05-14T11:50:04;28.30;64.60
67182;DHT22;54114;53.524;49.396;2023-05-14T11:52:40;28.40;61.80
67182;DHT22;54114;53.524;49.396;2023-05-14T11:55:11;28.30;59.10
67182;DHT22;54114;53.524;49.396;2023-05-14T11:57:37;28.30;57.60
67182;DHT22;54114;53.524;49.396;2023-05-14T12:00:09;28.30;57.30
67182;DHT22;54114;53.524;49.396;2023-05-14T12:02:47;28.50;56.70
67182;DHT22;54114;53.524;49.396;2023-05-14T12:05:14;28.70;56.40
67182;DHT22;54114;53.524;49.396;2023-05-14T12:07:43;29.00;53.60
67182;DHT22;54114;53.524;49.396;2023-05-14T12:10:11;29.20;49.80
67182;DHT22;54114;53.524;49.396;2023-05-14T12:12:38;29.30;51.00
67182;DHT22;54114;53.524;49.396;2023-05-14T12:15:12;29.50;50.00
67182;DHT22;54114;53.524;49.396;2023-05-14T12:17:39;29.90;49.10
67182;DHT22;54114;53.524;49.396;2023-05-14T12:20:10;30.40;48.20
67182;DHT22;54114;53.524;49.396;2023-05-14T12:22:37;30.90;47.50
67182;DHT22;54114;53.524;49.396;2023-05-14T12:25:08;31.30;46.60
67182;DHT22;54114;53.524;49.396;2023-05-14T12:27:37;31.60;44.90
67182;DHT22;54114;53.524;49.396;2023-05-14T12:30:05;32.00;45.30
67182;DHT22;54114;53.524;49.396;2023-05-14T12:32:37;32.30;45.70
67182;DHT22;54114;53.524;49.396;2023-05-14T12:35:06;32.60;42.30
67182;DHT22;54114;53.524;49.396;2023-05-14T12:37:33;32.90;41.00
67182;DHT22;54114;53.524;49.396;2023-05-14T12:40:05;33.10;41.20
67182;DHT22;54114;53.524;49.396;2023-05-14T12:42:35;33.10;38.90
67182;DHT22;54114;53.524;49.396;2023-05-14T12:45:02;33.00;37.00
67182;DHT22;54114;53.524;49.396;2023-05-14T12:47:32;33.00;36.30
67182;DHT22;54114;53.524;49.396;2023-05-14T12:49:58;33.00;36.30
67182;DHT22;54114;53.524;49.396;2023-05-14T12:52:25;33.00;36.20
67182;DHT22;54114;53.524;49.396;2023-05-14T12:54:52;32.90;34.90
67182;DHT22;54114;53.524;49.396;2023-05-14T12:57:18;32.90;34.50
67182;DHT22;54114;53.524;49.396;2023-05-14T12:59:45;32.80;33.50
67182;DHT22;54114;53.524;49.396;2023-05-14T13:02:12;32.70;32.20
67182;DHT22;54114;53.524;49.396;2023-05-14T13:04:38;32.60;32.00
67182;DHT22;54114;53.524;49.396;2023-05-14T13:07:06;32.60;32.00
67182;DHT22;54114;53.524;49.396;2023-05-14T13:09:33;32.70;31.20
67182;DHT22;54114;53.524;49.396;2023-05-14T13:12:00;33.10;30.50
67182;DHT22;54114;53.524;49.396;2023-05-14T13:14:27;33.50;30.00
67182;DHT22;54114;53.524;49.396;2023-05-14T13:16:54;33.80;29.80
67182;DHT22;54114;53.524;49.396;2023-05-14T13:19:20;33.80;29.10
67182;DHT22;54114;53.524;49.396;2023-05-14T13:21:47;33.50;29.30
67182;DHT22;54114;53.524;49.396;2023-05-14T13:24:13;33.50;29.20
67182;DHT22;54114;53.524;49.396;2023-05-14T13:26:41;33.50;29.20
67182;DHT22;54114;53.524;49.396;2023-05-14T13:29:09;33.60;29.10
67182;DHT22;54114;53.524;49.396;2023-05-14T13:31:36;33.60;29.00
67182;DHT22;54114;53.524;49.396;2023-05-14T13:34:03;33.50;28.90
67182;DHT22;54114;53.524;49.396;2023-05-14T13:36:29;33.30;28.80
67182;DHT22;54114;53.524;49.396;2023-05-14T13:38:57;33.10;28.80
67182;DHT22;54114;53.524;49.396;2023-05-14T13:41:25;32.80;28.90
67182;DHT22;54114;53.524;49.396;2023-05-14T13:43:51;32.60;29.10
67182;DHT22;54114;53.524;49.396;2023-05-14T13:46:18;32.30;29.30
67182;DHT22;54114;53.524;49.396;2023-05-14T13:48:45;31.90;29.50
67182;DHT22;54114;53.524;49.396;2023-05-14T13:51:11;31.50;29.80
67182;DHT22;54114;53.524;49.396;2023-05-14T13:53:38;31.20;30.00
67182;DHT22;54114;53.524;49.396;2023-05-14T13:56:05;30.90;30.70
67182;DHT22;54114;53.524;49.396;2023-05-14T13:58:33;30.40;31.20
67182;DHT22;54114;53.524;49.396;2023-05-14T14:01:00;30.00;31.80
67182;DHT22;54114;53.524;49.396;2023-05-14T14:03:26;29.60;32.20
67182;DHT22;54114;53.524;49.396;2023-05-14T14:05:53;29.30;32.90
67182;DHT22;54114;53.524;49.396;2023-05-14T14:08:20;29.00;33.40
67182;DHT22;54114;53.524;49.396;2023-05-14T14:10:46;28.70;33.60
67182;DHT22;54114;53.524;49.396;2023-05-14T14:13:13;28.40;33.90
67182;DHT22;54114;53.524;49.396;2023-05-14T14:15:40;28.10;34.20
67182;DHT22;54114;53.524;49.396;2023-05-14T14:18:07;27.90;34.60
67182;DHT22;54114;53.524;49.396;2023-05-14T14:20:34;27.60;35.00
67182;DHT22;54114;53.524;49.396;2023-05-14T14:23:01;27.50;35.20
67182;DHT22;54114;53.524;49.396;2023-05-14T14:25:27;27.40;35.50
67182;DHT22;54114;53.524;49.396;2023-05-14T14:27:54;27.30;35.80
67182;DHT22;54114;53.524;49.396;2023-05-14T14:30:21;27.30;36.10
67182;DHT22;54114;53.524;49.396;2023-05-14T14:32:48;27.40;36.10
67182;DHT22;54114;53.524;49.396;2023-05-14T14:35:16;27.60;35.70
67182;DHT22;54114;53.524;49.396;2023-05-14T14:37:44;27.90;35.40
67182;DHT22;54114;53.524;49.396;2023-05-14T14:40:16;28.30;35.00
67182;DHT22;54114;53.524;49.396;2023-05-14T14:42:42;28.50;34.60
67182;DHT22;54114;53.524;49.396;2023-05-14T14:45:10;28.60;34.60
67182;DHT22;54114;53.524;49.396;2023-05-14T14:47:37;28.60;34.40
67182;DHT22;54114;53.524;49.396;2023-05-14T14:50:04;28.70;34.40
67182;DHT22;54114;53.524;49.396;2023-05-14T14:52:31;28.70;34.60
67182;DHT22;54114;53.524;49.396;2023-05-14T14:54:58;28.60;34.60
67182;DHT22;54114;53.524;49.396;2023-05-14T14:57:25;28.50;34.60
67182;DHT22;54114;53.524;49.396;2023-05-14T14:59:52;28.40;34.40
67182;DHT22;54114;53.524;49.396;2023-05-14T15:02:19;28.40;34.60
67182;DHT22;54114;53.524;49.396;2023-05-14T15:04:45;28.20;34.30
67182;DHT22;54114;53.524;49.396;2023-05-14T15:07:12;28.00;34.60
67182;DHT22;54114;53.524;49.396;2023-05-14T15:09:41;27.80;34.90
67182;DHT22;54114;53.524;49.396;2023-05-14T15:12:08;27.70;34.90
67182;DHT22;54114;53.524;49.396;2023-05-14T15:14:35;27.60;34.90
67182;DHT22;54114;53.524;49.396;2023-05-14T15:17:02;27.60;35.00
67182;DHT22;54114;53.524;49.396;2023-05-14T15:19:29;27.40;35.10
67182;DHT22;54114;53.524;49.396;2023-05-14T15:21:57;27.20;35.20
67182;DHT22;54114;53.524;49.396;2023-05-14T15:24:24;27.00;35.50
67182;DHT22;54114;53.524;49.396;2023-05-14T15:26:51;26.70;35.60